Terminal Aerodrome Forecast
Issued by NWS

Home | Current Version | Previous Version | Text Only | Print | Product List | Glossary On
Versions: 1 2 3 4 5 6 7 8 9 10 11 12 13 14 15 16
756
FTUS43 KDTX 182320
TAFDET
TAF
KDET 182320Z 1900/1924 26012G18KT P6SM BKN045
     FM190200 25008KT P6SM SCT050 SCT250
     FM190900 23005KT P6SM OVC045 PROB30 1911/1914 6SM -SHRA OVC035
     FM191700 28007KT P6SM SCT050=

USA.gov is the U.S. government's official web portal to all federal, state and local government web resources and services.